Time;durP1;ratioP1;P1;durP2;ratioP2;P2;SDS_P1;SDS_P2;PMS_P1;PMS_P2;Temp;Humidity;BMP_temperature;BMP_pressure;BME280_temperature;BME280_humidity;BME280_pressure;Samples;Min_cycle;Max_cycle;Signal;HPM_P1;HPM_P2
2023/12/14 00:02:20;;;;;;;;;1.00;0.00;;;;;9.44;87.78;100832.63;5057667;28;68322;-53
2023/12/14 00:04:45;;;;;;;;;1.00;0.67;;;;;9.42;87.87;100835.31;5035551;28;61526;-51
2023/12/14 00:07:14;;;;;;;;;0.00;0.00;;;;;9.47;88.07;100836.94;5057286;28;69287;-54
2023/12/14 00:09:39;;;;;;;;;3.00;1.00;;;;;9.44;87.69;100846.75;5057135;28;45272;-51
2023/12/14 00:12:05;;;;;;;;;3.00;1.00;;;;;9.47;87.81;100845.75;5056680;28;45457;-53
2023/12/14 00:14:30;;;;;;;;;1.00;0.00;;;;;9.47;87.26;100856.38;5073888;27;45566;-51
2023/12/14 00:16:58;;;;;;;;;1.00;1.00;;;;;9.45;87.69;100868.84;5057107;28;74195;-52
2023/12/14 00:19:24;;;;;;;;;1.00;1.00;;;;;9.48;87.45;100867.84;5058675;28;45501;-50
2023/12/14 00:21:49;;;;;;;;;0.33;0.33;;;;;9.48;87.32;100878.47;5057736;28;68233;-53
2023/12/14 00:24:14;;;;;;;;;0.00;0.00;;;;;9.46;87.17;100872.38;5052852;28;64279;-53
2023/12/14 00:26:40;;;;;;;;;1.00;1.00;;;;;9.47;87.45;100880.25;5056492;28;72012;-51
2023/12/14 00:29:05;;;;;;;;;1.00;1.00;;;;;9.50;87.25;100887.25;5061144;28;46592;-51
2023/12/14 00:31:30;;;;;;;;;0.33;0.00;;;;;9.51;86.94;100891.63;5055240;28;45398;-53
2023/12/14 00:33:56;;;;;;;;;0.00;0.00;;;;;9.50;86.69;100892.53;5057316;28;61146;-53
2023/12/14 00:36:21;;;;;;;;;1.00;1.00;;;;;9.47;86.85;100901.50;5057917;28;62900;-54
2023/12/14 00:38:46;;;;;;;;;1.33;0.00;;;;;9.44;87.09;100902.50;5057205;28;74197;-52
2023/12/14 00:41:12;;;;;;;;;1.67;0.33;;;;;9.42;87.41;100908.81;5057080;28;68337;-49
2023/12/14 00:43:38;;;;;;;;;3.00;0.00;;;;;9.39;87.33;100912.47;5057215;28;45321;-51
2023/12/14 00:46:03;;;;;;;;;1.00;1.00;;;;;9.38;87.34;100918.69;5059283;28;46311;-52
2023/12/14 00:48:29;;;;;;;;;1.33;0.67;;;;;9.36;88.22;100917.03;5058614;28;53056;-53
2023/12/14 00:50:54;;;;;;;;;0.33;0.33;;;;;9.34;88.23;100929.53;5060488;28;45443;-50
2023/12/14 00:53:19;;;;;;;;;1.00;0.00;;;;;9.34;87.86;100942.81;5060765;28;68511;-50
2023/12/14 00:55:45;;;;;;;;;2.00;1.00;;;;;9.35;87.71;100937.41;5060592;28;73471;-50
2023/12/14 00:58:12;;;;;;;;;0.33;0.33;;;;;9.35;87.33;100936.56;5060119;28;45288;-50
2023/12/14 01:00:38;;;;;;;;;0.00;0.00;;;;;9.35;87.06;100947.19;5061786;28;45401;-49
2023/12/14 01:03:03;;;;;;;;;0.00;0.00;;;;;9.32;86.90;100950.84;5056196;28;45560;-52
2023/12/14 01:05:28;;;;;;;;;0.00;0.00;;;;;9.27;86.99;100945.72;5059545;28;74265;-51
2023/12/14 01:07:54;;;;;;;;;1.00;0.00;;;;;9.24;87.29;100959.13;5058734;28;48185;-52
2023/12/14 01:10:19;;;;;;;;;0.00;0.00;;;;;9.21;87.43;100958.38;5060407;28;50611;-51
2023/12/14 01:12:44;;;;;;;;;1.67;0.00;;;;;9.18;87.30;100964.69;5073636;27;67824;-52
2023/12/14 01:15:10;;;;;;;;;0.00;0.00;;;;;9.16;87.58;100971.81;5059386;28;73925;-50
2023/12/14 01:17:37;;;;;;;;;0.67;0.00;;;;;9.14;88.06;100973.69;5060323;28;45291;-52
2023/12/14 01:20:06;;;;;;;;;0.00;0.00;;;;;9.14;87.92;100975.47;5059864;28;45392;-52
2023/12/14 01:22:32;;;;;;;;;0.00;0.00;;;;;9.15;87.95;100977.19;5060465;28;45571;-49
2023/12/14 01:24:58;;;;;;;;;0.00;0.00;;;;;9.16;87.91;100992.22;5062575;28;45697;-50
2023/12/14 01:27:23;;;;;;;;;0.33;0.00;;;;;9.14;88.03;100986.09;5061472;28;45249;-52
2023/12/14 01:29:48;;;;;;;;;0.00;0.00;;;;;9.14;88.12;100992.28;5060312;28;68234;-52
2023/12/14 01:32:14;;;;;;;;;0.00;0.00;;;;;9.13;88.19;101001.16;5057089;28;45320;-52
2023/12/14 01:34:39;;;;;;;;;0.00;0.00;;;;;9.15;88.51;101003.75;5059824;28;52331;-51
2023/12/14 01:37:04;;;;;;;;;0.00;0.00;;;;;9.18;88.13;101004.47;5059143;28;73431;-51
2023/12/14 01:39:30;;;;;;;;;0.00;0.00;;;;;9.19;88.32;101016.84;5060040;28;45658;-49
2023/12/14 01:41:55;;;;;;;;;0.00;0.00;;;;;9.18;88.36;101016.91;5060377;28;45435;-49
2023/12/14 01:44:20;;;;;;;;;0.00;0.00;;;;;9.14;88.36;101013.50;5058291;28;65909;-51
2023/12/14 01:46:46;;;;;;;;;0.00;0.00;;;;;9.14;88.25;101024.13;5058836;28;45688;-52
2023/12/14 01:49:11;;;;;;;;;0.00;0.00;;;;;9.14;88.46;101031.19;5059190;28;68808;-50
2023/12/14 01:51:36;;;;;;;;;0.00;0.00;;;;;9.14;88.33;101037.38;5060255;28;45738;-53
2023/12/14 01:54:02;;;;;;;;;2.00;0.00;;;;;9.13;89.00;101040.13;5058892;28;69289;-51
2023/12/14 01:56:27;;;;;;;;;0.00;0.00;;;;;9.09;89.13;101039.38;5059432;28;68767;-52
2023/12/14 01:58:52;;;;;;;;;0.00;0.00;;;;;9.08;89.37;101050.91;5058786;28;64065;-51
2023/12/14 02:01:21;;;;;;;;;1.00;1.00;;;;;9.05;89.59;101053.69;5059641;28;69059;-53
2023/12/14 02:03:49;;;;;;;;;0.00;0.00;;;;;9.05;89.65;101061.66;5060010;28;46348;-53
2023/12/14 02:06:15;;;;;;;;;3.00;0.67;;;;;9.02;89.21;101069.69;5059559;28;45568;-53
2023/12/14 02:08:40;;;;;;;;;2.00;0.67;;;;;9.00;89.75;101068.91;5058520;28;45576;-52
2023/12/14 02:11:06;;;;;;;;;0.00;0.00;;;;;8.99;89.65;101069.84;5059210;28;59541;-53
2023/12/14 02:13:32;;;;;;;;;0.00;0.00;;;;;8.94;89.75;101081.50;5058449;28;47188;-53
2023/12/14 02:15:57;;;;;;;;;0.00;0.00;;;;;8.94;89.85;101085.91;5058623;28;45766;-51
2023/12/14 02:18:23;;;;;;;;;0.00;0.00;;;;;8.93;89.83;101094.81;5058798;28;45478;-50
2023/12/14 02:20:48;;;;;;;;;0.00;0.00;;;;;8.94;90.10;101094.75;5058679;28;67729;-52
2023/12/14 02:23:13;;;;;;;;;0.67;0.00;;;;;8.97;90.15;101104.41;5058422;28;45542;-50
2023/12/14 02:25:39;;;;;;;;;0.00;0.00;;;;;8.96;89.92;101100.00;5059201;28;45447;-48
2023/12/14 02:28:04;;;;;;;;;0.00;0.00;;;;;8.97;90.26;101096.44;5058720;28;68014;-51
2023/12/14 02:30:29;;;;;;;;;0.00;0.00;;;;;8.98;90.36;101098.13;5058765;28;65769;-51
2023/12/14 02:32:55;;;;;;;;;0.00;0.00;;;;;9.00;90.29;101098.97;5055736;28;74407;-50
2023/12/14 02:35:20;;;;;;;;;0.00;0.00;;;;;9.01;89.91;101110.41;5063248;28;45354;-50
2023/12/14 02:37:45;;;;;;;;;0.00;0.00;;;;;9.02;90.19;101117.47;5056770;28;45370;-51
2023/12/14 02:40:11;;;;;;;;;1.00;1.00;;;;;9.01;89.99;101116.63;5058958;28;59848;-52
2023/12/14 02:42:37;;;;;;;;;2.00;0.00;;;;;9.02;90.46;101114.81;5055322;28;63498;-51
2023/12/14 02:45:03;;;;;;;;;1.00;0.00;;;;;9.06;90.26;101121.72;5059755;28;45331;-51
2023/12/14 02:47:29;;;;;;;;;1.33;0.00;;;;;9.08;90.58;101125.19;5057141;28;45469;-51
2023/12/14 02:49:54;;;;;;;;;0.00;0.00;;;;;9.09;89.95;101122.47;5059125;28;45354;-50
2023/12/14 02:52:20;;;;;;;;;0.00;0.00;;;;;9.12;89.91;101120.66;5055411;28;46143;-50
2023/12/14 02:54:45;;;;;;;;;0.00;0.00;;;;;9.12;90.11;101128.59;5055072;28;71623;-51
2023/12/14 02:57:10;;;;;;;;;1.00;0.00;;;;;9.13;89.91;101133.00;5055733;28;69442;-55
2023/12/14 02:59:36;;;;;;;;;0.00;0.00;;;;;9.12;89.76;101139.22;5058834;28;65870;-51
2023/12/14 03:02:01;;;;;;;;;0.00;0.00;;;;;9.14;90.18;101142.66;5055741;28;73139;-50
2023/12/14 03:04:26;;;;;;;;;0.00;0.00;;;;;9.16;89.87;101140.81;5057383;28;67895;-51
2023/12/14 03:06:52;;;;;;;;;0.00;0.00;;;;;9.13;89.84;101141.81;5056720;28;46476;-50
2023/12/14 03:09:18;;;;;;;;;0.00;0.00;;;;;9.12;89.41;101148.03;5057713;28;45444;-51
2023/12/14 03:11:44;;;;;;;;;0.00;0.00;;;;;9.10;89.83;101161.38;5059103;28;45281;-50
2023/12/14 03:14:09;;;;;;;;;0.00;0.00;;;;;9.08;89.81;101155.25;5055522;28;45913;-50
2023/12/14 03:16:35;;;;;;;;;0.00;0.00;;;;;9.09;89.84;101164.94;5059626;28;45697;-51
2023/12/14 03:19:01;;;;;;;;;0.00;0.00;;;;;9.06;89.58;101157.09;5055726;28;45173;-50
2023/12/14 03:21:26;;;;;;;;;0.00;0.00;;;;;9.05;90.11;101165.97;5059284;28;46467;-50
2023/12/14 03:23:51;;;;;;;;;0.00;0.00;;;;;9.03;90.13;101167.81;5047013;28;71338;-51
2023/12/14 03:26:17;;;;;;;;;0.00;0.00;;;;;9.05;89.89;101176.59;5072014;28;45358;-50
2023/12/14 03:28:42;;;;;;;;;0.00;0.00;;;;;9.02;89.94;101187.34;5057324;28;56506;-52
2023/12/14 03:31:10;;;;;;;;;3.00;0.00;;;;;9.03;90.20;101193.50;5057157;28;75595;-51
2023/12/14 03:33:36;;;;;;;;;0.00;0.00;;;;;9.01;90.29;101196.22;5051920;28;45299;-50
2023/12/14 03:36:02;;;;;;;;;0.00;0.00;;;;;9.02;90.04;101203.25;5057708;28;45409;-52
2023/12/14 03:38:27;;;;;;;;;0.33;0.00;;;;;9.02;90.55;101199.72;5055412;28;45463;-52
2023/12/14 03:40:53;;;;;;;;;0.00;0.00;;;;;9.04;90.88;101205.84;5056344;28;75393;-50
2023/12/14 03:43:19;;;;;;;;;0.00;0.00;;;;;9.06;90.69;101204.00;5055628;28;64968;-51
2023/12/14 03:45:44;;;;;;;;;0.00;0.00;;;;;9.08;90.48;101223.38;5091751;27;45503;-53
2023/12/14 03:48:10;;;;;;;;;0.00;0.00;;;;;9.09;90.57;101222.47;5055623;28;45335;-53
2023/12/14 03:50:35;;;;;;;;;0.00;0.00;;;;;9.08;90.38;101229.53;5091234;27;45473;-53
2023/12/14 03:53:01;;;;;;;;;0.00;0.00;;;;;9.08;90.71;101232.19;5054711;28;73329;-53
2023/12/14 03:55:26;;;;;;;;;2.33;0.00;;;;;9.10;90.36;101240.13;5057956;28;45584;-53
2023/12/14 03:57:51;;;;;;;;;0.00;0.00;;;;;9.11;90.58;101249.81;5057941;28;69576;-53
2023/12/14 04:17:17;;;;;;;;;1.67;1.00;;;;;9.15;90.47;101293.03;5044622;28;68867;-51
2023/12/14 04:19:42;;;;;;;;;2.00;2.00;;;;;9.14;90.27;101291.28;5037702;28;73303;-54
2023/12/14 04:22:07;;;;;;;;;1.67;1.00;;;;;9.12;90.15;101291.34;5047853;28;69850;-51
2023/12/14 04:24:33;;;;;;;;;2.00;1.00;;;;;9.15;90.32;101299.22;5057231;28;63770;-54
2023/12/14 04:26:59;;;;;;;;;2.00;2.00;;;;;9.17;90.45;101297.34;5058818;28;45316;-53
2023/12/14 04:29:24;;;;;;;;;1.00;1.00;;;;;9.18;90.45;101315.03;5053110;28;73176;-51
2023/12/14 04:31:49;;;;;;;;;1.00;1.00;;;;;9.19;90.22;101310.56;5057719;28;72912;-53
2023/12/14 04:34:15;;;;;;;;;1.00;1.00;;;;;9.20;90.16;101325.56;5052533;28;45388;-54
2023/12/14 04:36:45;;;;;;;;;1.00;1.00;;;;;9.20;89.97;101328.22;5058913;28;45232;-50
2023/12/14 04:39:10;;;;;;;;;1.00;1.00;;;;;9.19;89.87;101335.34;5057691;28;46504;-53
2023/12/14 04:41:35;;;;;;;;;3.00;1.00;;;;;9.19;89.88;101342.41;5057417;28;71465;-52
2023/12/14 04:44:01;;;;;;;;;1.00;1.00;;;;;9.17;90.01;101346.94;5058028;28;45476;-50
2023/12/14 04:46:26;;;;;;;;;2.00;0.33;;;;;9.16;90.10;101358.47;5054491;28;65419;-51
2023/12/14 04:48:51;;;;;;;;;1.00;1.00;;;;;9.15;89.90;101359.38;5056286;28;66447;-53
2023/12/14 04:51:17;;;;;;;;;1.00;1.00;;;;;9.13;89.58;101364.75;5055394;28;73519;-52
2023/12/14 04:53:42;;;;;;;;;0.00;0.00;;;;;9.11;89.60;101371.88;5058443;28;45453;-53
2023/12/14 04:56:11;;;;;;;;;1.00;1.00;;;;;9.09;89.86;101374.59;5057646;28;50282;-51
2023/12/14 04:58:38;;;;;;;;;2.00;2.00;;;;;9.08;89.86;101374.66;5090682;27;46809;-51
2023/12/14 05:01:03;;;;;;;;;3.00;1.00;;;;;9.08;89.97;101372.84;5056131;28;45440;-52
2023/12/14 05:03:29;;;;;;;;;2.00;1.67;;;;;9.09;89.43;101377.25;5070076;27;45464;-52
2023/12/14 05:05:54;;;;;;;;;4.00;2.00;;;;;9.07;89.73;101389.72;5057844;28;45584;-52
2023/12/14 05:08:19;;;;;;;;;1.67;1.33;;;;;9.07;89.78;101395.03;5089336;27;74542;-52
2023/12/14 05:10:45;;;;;;;;;2.00;1.00;;;;;9.09;90.01;101401.13;5055745;28;73608;-51
2023/12/14 05:13:10;;;;;;;;;2.00;2.00;;;;;9.12;89.72;101401.97;5056495;28;68508;-52
2023/12/14 05:15:35;;;;;;;;;1.00;1.00;;;;;9.12;89.64;101405.47;5058506;28;45312;-53
2023/12/14 05:18:00;;;;;;;;;3.33;2.33;;;;;9.13;89.35;101409.88;5054284;28;45275;-51
2023/12/14 05:20:26;;;;;;;;;2.00;2.00;;;;;9.14;89.46;101418.69;5056298;28;68907;-51
2023/12/14 05:22:51;;;;;;;;;2.00;2.00;;;;;9.13;89.55;101416.97;5057317;28;45425;-52
2023/12/14 05:25:16;;;;;;;;;6.00;3.00;;;;;9.11;89.09;101417.00;5055270;28;69709;-53
2023/12/14 05:27:42;;;;;;;;;2.00;2.00;;;;;9.08;89.50;101427.72;5057539;28;48469;-51
2023/12/14 05:30:07;;;;;;;;;1.33;1.00;;;;;9.11;89.59;101430.28;5057524;28;45389;-52
2023/12/14 05:32:33;;;;;;;;;4.33;2.00;;;;;9.12;89.30;101436.47;5060207;28;45270;-51
2023/12/14 05:34:59;;;;;;;;;4.33;3.00;;;;;9.13;89.23;101444.38;5058296;28;45375;-51
2023/12/14 05:37:24;;;;;;;;;5.00;3.00;;;;;9.13;89.37;101449.69;5055338;28;46056;-51
2023/12/14 05:39:50;;;;;;;;;3.00;3.00;;;;;9.12;89.21;101449.75;5059135;28;45667;-51
2023/12/14 05:42:18;;;;;;;;;2.00;2.00;;;;;9.08;88.91;101455.13;5058973;28;55023;-52
2023/12/14 05:44:45;;;;;;;;;2.67;2.67;;;;;9.07;89.20;101452.53;5059672;28;58156;-53
2023/12/14 05:47:10;;;;;;;;;3.67;2.00;;;;;9.06;89.27;101450.78;5059470;28;46291;-52
2023/12/14 05:49:35;;;;;;;;;3.00;2.00;;;;;9.06;89.20;101459.63;5060851;28;45426;-53
2023/12/14 05:52:01;;;;;;;;;1.67;1.67;;;;;9.06;89.03;101456.09;5041740;28;64953;-52
2023/12/14 05:54:26;;;;;;;;;4.67;3.00;;;;;9.07;89.24;101458.72;5054615;28;67516;-53
2023/12/14 05:56:51;;;;;;;;;3.67;2.00;;;;;9.07;89.05;101466.69;5059722;28;45439;-51
2023/12/14 05:59:17;;;;;;;;;4.00;1.67;;;;;9.05;88.82;101468.50;5059235;28;68495;-51
2023/12/14 06:01:43;;;;;;;;;4.33;2.33;;;;;9.06;89.00;101466.72;5059938;28;45469;-53
2023/12/14 06:04:08;;;;;;;;;1.00;1.00;;;;;9.07;88.96;101474.66;5060130;28;45431;-51
2023/12/14 06:06:34;;;;;;;;;2.00;2.00;;;;;9.11;88.63;101491.31;5059345;28;66549;-53
2023/12/14 06:08:59;;;;;;;;;2.00;2.00;;;;;9.07;88.57;101493.22;5065735;28;45367;-53
2023/12/14 06:11:24;;;;;;;;;2.00;2.00;;;;;9.07;88.69;101493.22;5057336;28;65672;-52
2023/12/14 06:13:50;;;;;;;;;2.00;2.00;;;;;9.06;88.92;101506.53;5061684;28;64804;-51
2023/12/14 06:16:15;;;;;;;;;3.33;2.00;;;;;9.08;88.80;101510.00;5060025;28;45877;-53
2023/12/14 06:18:43;;;;;;;;;1.00;1.00;;;;;9.05;88.59;101516.28;5059174;28;71693;-54
2023/12/14 06:21:08;;;;;;;;;3.33;2.33;;;;;9.05;88.58;101524.25;5062124;28;45411;-54
2023/12/14 06:23:35;;;;;;;;;0.67;0.67;;;;;9.04;88.61;101530.47;5044853;28;45562;-55
2023/12/14 06:26:03;;;;;;;;;3.00;1.67;;;;;9.04;88.34;101543.72;5069066;28;47505;-54
2023/12/14 06:28:30;;;;;;;;;2.00;1.00;;;;;9.03;88.52;101541.97;5054973;28;45510;-55
2023/12/14 06:30:55;;;;;;;;;1.00;0.00;;;;;9.03;88.65;101549.94;5068776;28;46522;-53
2023/12/14 06:33:21;;;;;;;;;2.00;0.00;;;;;9.04;88.39;101548.19;5065842;28;45244;-54
2023/12/14 06:35:47;;;;;;;;;1.33;1.00;;;;;9.06;88.54;101562.25;5059103;28;46073;-53
2023/12/14 06:38:12;;;;;;;;;2.00;2.00;;;;;9.06;88.23;101571.09;5059003;28;45370;-54
2023/12/14 06:40:38;;;;;;;;;3.00;2.00;;;;;9.06;88.25;101580.81;5062520;28;45453;-54
2023/12/14 06:43:06;;;;;;;;;1.00;1.00;;;;;9.06;88.26;101588.78;5054157;28;45435;-54
2023/12/14 06:45:31;;;;;;;;;4.00;4.00;;;;;9.07;88.63;101596.72;5056131;28;45570;-53
2023/12/14 06:47:57;;;;;;;;;6.00;3.33;;;;;9.07;87.93;101599.38;5058384;28;53734;-53
2023/12/14 06:50:22;;;;;;;;;3.67;2.67;;;;;9.06;88.27;101602.94;5058195;28;49106;-54
2023/12/14 06:52:47;;;;;;;;;3.00;3.00;;;;;9.04;88.34;101615.38;5058420;28;70281;-54
2023/12/14 06:55:14;;;;;;;;;1.00;1.00;;;;;9.02;88.13;101622.53;5057305;28;72235;-54
2023/12/14 06:57:42;;;;;;;;;3.00;1.33;;;;;9.01;88.28;101625.22;5052723;28;45507;-53
2023/12/14 07:00:09;;;;;;;;;2.00;2.00;;;;;8.98;88.33;101623.53;5089075;27;45663;-55
2023/12/14 07:02:34;;;;;;;;;3.00;3.00;;;;;8.98;88.58;101625.31;5057753;28;45555;-53
2023/12/14 07:05:00;;;;;;;;;5.00;3.00;;;;;8.99;89.21;101632.38;5091111;27;52575;-54
2023/12/14 07:07:25;;;;;;;;;4.00;2.33;;;;;9.00;89.06;101642.94;5059280;28;45562;-54
2023/12/14 07:09:51;;;;;;;;;2.33;2.33;;;;;9.01;88.71;101636.72;5058338;28;66514;-54
2023/12/14 07:12:16;;;;;;;;;1.67;1.00;;;;;9.01;89.11;101641.13;5058137;28;45656;-57
2023/12/14 07:14:42;;;;;;;;;3.00;3.00;;;;;9.02;88.79;101638.47;5056629;28;63254;-53
2023/12/14 07:17:07;;;;;;;;;3.67;3.00;;;;;9.02;88.70;101651.72;5053122;28;45501;-52
2023/12/14 07:19:32;;;;;;;;;3.00;3.00;;;;;9.04;89.09;101652.53;5059063;28;61680;-55
2023/12/14 07:21:58;;;;;;;;;3.67;2.00;;;;;9.06;89.18;101666.66;5057628;28;67613;-53
2023/12/14 07:24:23;;;;;;;;;2.00;1.00;;;;;9.04;88.67;101665.81;5054480;28;48496;-53
2023/12/14 07:26:49;;;;;;;;;1.33;1.00;;;;;8.99;88.64;101667.72;5056723;28;70732;-53
2023/12/14 07:29:14;;;;;;;;;1.33;1.33;;;;;8.96;88.64;101673.13;5057359;28;45363;-53
2023/12/14 07:31:40;;;;;;;;;1.00;1.00;;;;;8.96;88.59;101696.13;5053792;28;67507;-54
2023/12/14 07:34:05;;;;;;;;;3.00;1.67;;;;;8.97;88.96;101697.88;5055508;28;46373;-53
2023/12/14 07:36:31;;;;;;;;;1.00;1.00;;;;;9.00;89.11;101708.41;5057090;28;45343;-53
2023/12/14 07:38:57;;;;;;;;;0.00;0.00;;;;;9.04;88.86;101710.06;5055804;28;69399;-51
2023/12/14 07:41:26;;;;;;;;;0.00;0.00;;;;;9.03;88.76;101717.13;5061973;28;45208;-53
2023/12/14 07:43:51;;;;;;;;;1.00;1.00;;;;;9.05;88.73;101727.75;5056009;28;46286;-54
2023/12/14 07:46:17;;;;;;;;;1.00;1.00;;;;;9.04;88.43;101726.00;5052633;28;72069;-52
2023/12/14 07:48:42;;;;;;;;;1.00;1.00;;;;;9.04;88.40;101732.16;5053323;28;45519;-54
2023/12/14 07:51:07;;;;;;;;;1.33;1.33;;;;;9.06;88.51;101740.06;5056994;28;48382;-51
2023/12/14 07:53:33;;;;;;;;;2.00;0.33;;;;;9.06;88.31;101746.25;5089864;27;71495;-52
2023/12/14 07:55:58;;;;;;;;;2.00;1.00;;;;;9.07;88.15;101747.13;5058609;28;46675;-52
2023/12/14 07:58:25;;;;;;;;;1.00;1.00;;;;;9.06;87.97;101753.34;5057815;28;45338;-53
2023/12/14 08:00:51;;;;;;;;;1.00;1.00;;;;;9.07;87.69;101758.63;5059074;27;45212;-53
2023/12/14 08:03:16;;;;;;;;;2.33;1.00;;;;;9.04;87.39;101763.16;5054682;28;65976;-53
2023/12/14 08:05:41;;;;;;;;;5.00;3.00;;;;;9.00;87.29;101775.63;5055363;28;45852;-51
2023/12/14 08:08:07;;;;;;;;;2.00;1.00;;;;;8.95;87.14;101772.22;5057588;28;45494;-53
2023/12/14 08:10:32;;;;;;;;;3.33;3.33;;;;;8.92;87.21;101781.13;5057880;27;68318;-53
2023/12/14 08:12:57;;;;;;;;;2.33;1.33;;;;;8.91;86.82;101787.34;5063368;28;55874;-53
2023/12/14 08:15:22;;;;;;;;;2.00;2.00;;;;;8.91;87.20;101789.16;5060682;27;73000;-54
2023/12/14 08:17:48;;;;;;;;;6.00;3.67;;;;;8.91;87.03;101792.66;5058752;28;50164;-54
2023/12/14 08:20:14;;;;;;;;;3.00;2.67;;;;;8.89;86.58;101801.56;5059324;28;62728;-54
2023/12/14 08:22:44;;;;;;;;;5.00;3.67;;;;;8.86;86.49;101799.88;5053754;28;45840;-53
2023/12/14 08:25:17;;;;;;;;;4.00;2.00;;;;;8.86;86.55;101806.97;5052466;28;45919;-53
2023/12/14 08:27:46;;;;;;;;;3.33;2.00;;;;;8.89;86.48;101813.06;5056667;28;45406;-55
2023/12/14 08:30:12;;;;;;;;;3.00;3.00;;;;;8.92;85.99;101814.78;5066187;28;45634;-54
2023/12/14 08:32:38;;;;;;;;;3.00;3.00;;;;;8.96;86.03;101823.50;5068241;27;45488;-56
2023/12/14 08:35:03;;;;;;;;;3.33;2.33;;;;;8.99;85.73;101823.44;5054995;27;45467;-55
2023/12/14 08:37:29;;;;;;;;;2.00;1.00;;;;;9.02;85.86;101826.00;5058454;28;45390;-55
2023/12/14 08:39:55;;;;;;;;;3.33;2.00;;;;;9.03;85.74;101825.94;5060053;28;45552;-56
2023/12/14 08:42:20;;;;;;;;;1.00;1.00;;;;;9.03;85.58;101831.25;5059458;28;46061;-54
2023/12/14 08:44:46;;;;;;;;;2.67;2.67;;;;;9.05;85.84;101837.41;5054739;28;46445;-56
2023/12/14 08:47:11;;;;;;;;;2.00;2.00;;;;;9.05;85.38;101845.38;5056907;28;68264;-55
2023/12/14 08:49:36;;;;;;;;;4.00;2.33;;;;;9.06;85.45;101841.81;5066387;28;45433;-55
2023/12/14 08:52:04;;;;;;;;;3.00;3.00;;;;;9.08;85.09;101855.03;5057027;28;45703;-55
2023/12/14 08:54:29;;;;;;;;;2.33;2.33;;;;;9.10;84.86;101854.09;5058194;27;45422;-56
2023/12/14 08:56:55;;;;;;;;;2.33;1.67;;;;;9.08;84.70;101858.53;5059649;28;45443;-55
2023/12/14 08:59:20;;;;;;;;;2.00;2.00;;;;;9.07;84.99;101863.91;5056749;28;45374;-56
2023/12/14 09:01:46;;;;;;;;;2.00;2.00;;;;;9.07;85.09;101859.47;5051145;28;46227;-55
2023/12/14 09:04:11;;;;;;;;;4.67;2.00;;;;;9.08;84.96;101870.97;5090315;27;45810;-56
2023/12/14 09:06:36;;;;;;;;;3.00;3.00;;;;;9.11;85.03;101873.53;5057591;28;45407;-57
2023/12/14 09:09:03;;;;;;;;;3.00;3.00;;;;;9.08;84.72;101877.13;5056229;28;69689;-57
2023/12/14 09:11:28;;;;;;;;;2.00;2.00;;;;;9.08;84.34;101878.91;5060114;28;45982;-57
2023/12/14 09:13:53;;;;;;;;;2.00;2.00;;;;;9.07;84.53;101878.06;5059682;28;45512;-56
2023/12/14 09:16:19;;;;;;;;;2.00;2.00;;;;;9.07;84.58;101890.44;5059532;28;55531;-55
2023/12/14 09:18:44;;;;;;;;;4.00;2.00;;;;;9.07;84.26;101890.44;5060247;28;65643;-55
2023/12/14 09:21:10;;;;;;;;;2.33;2.33;;;;;9.09;84.24;101894.81;5060313;28;45562;-57
2023/12/14 09:23:35;;;;;;;;;2.00;2.00;;;;;9.15;83.84;101895.56;5057137;28;65824;-55
2023/12/14 09:26:00;;;;;;;;;2.00;2.00;;;;;9.20;84.02;101885.69;5064354;28;63918;-56
2023/12/14 09:28:26;;;;;;;;;2.00;2.00;;;;;9.25;83.02;101902.38;5061480;28;65359;-56
2023/12/14 09:30:51;;;;;;;;;2.67;2.00;;;;;9.27;83.35;101898.75;5067541;28;45607;-56
2023/12/14 09:33:17;;;;;;;;;2.00;2.00;;;;;9.29;82.96;101906.66;5092094;27;45494;-57
2023/12/14 09:35:43;;;;;;;;;3.67;2.00;;;;;9.31;83.25;101918.13;5062056;28;45549;-56
2023/12/14 09:38:09;;;;;;;;;2.00;2.00;;;;;9.35;83.18;101917.13;5059283;28;45695;-56
2023/12/14 09:40:34;;;;;;;;;1.67;1.67;;;;;9.38;82.86;101921.50;5078042;27;46648;-60
2023/12/14 09:43:00;;;;;;;;;4.00;4.00;;;;;9.36;82.34;101928.63;5063000;28;45564;-55
2023/12/14 09:45:29;;;;;;;;;2.00;2.00;;;;;9.34;82.15;101928.66;5079184;27;45525;-56
2023/12/14 09:47:54;;;;;;;;;1.67;1.67;;;;;9.36;82.36;101932.16;5058487;28;45470;-54
2023/12/14 09:50:20;;;;;;;;;3.67;2.33;;;;;9.40;82.10;101939.13;5060536;27;62301;-55
2023/12/14 09:52:48;;;;;;;;;2.67;2.67;;;;;9.47;81.90;101937.16;5099968;27;45348;-56
2023/12/14 09:55:14;;;;;;;;;3.67;3.00;;;;;9.53;81.80;101942.31;5058423;28;45609;-56
2023/12/14 09:57:39;;;;;;;;;1.67;1.67;;;;;9.66;81.12;101942.84;5057373;28;45525;-56
2023/12/14 10:00:10;;;;;;;;;4.33;4.33;;;;;9.81;81.16;101957.47;5056439;28;75745;-56
2023/12/14 10:02:35;;;;;;;;;4.00;4.00;;;;;9.94;80.96;101964.19;5055159;28;45376;-55
2023/12/14 10:05:00;;;;;;;;;4.00;2.33;;;;;9.98;79.67;101956.13;5061178;27;65172;-57
2023/12/14 10:07:26;;;;;;;;;3.00;3.00;;;;;10.00;80.26;101965.81;5063263;28;45490;-55
2023/12/14 10:09:53;;;;;;;;;3.67;2.00;;;;;10.00;79.73;101962.25;5054620;28;74582;-56
2023/12/14 10:12:18;;;;;;;;;3.00;3.00;;;;;10.01;80.04;101974.66;5044103;28;45537;-56
2023/12/14 10:14:44;;;;;;;;;2.00;1.00;;;;;10.01;79.48;101978.19;5049084;28;45711;-55
2023/12/14 10:17:21;;;;;;;;;3.67;2.00;;;;;10.04;78.79;101983.41;5063313;28;70480;-56
2023/12/14 10:19:47;;;;;;;;;3.33;2.00;;;;;10.13;79.58;101984.03;5095129;27;46659;-56
2023/12/14 10:22:17;;;;;;;;;2.67;2.00;;;;;10.14;78.33;101986.66;5066652;27;45461;-56
2023/12/14 10:24:52;;;;;;;;;4.33;3.00;;;;;10.10;78.51;101985.91;5063136;28;45480;-55
2023/12/14 10:27:17;;;;;;;;;2.00;2.00;;;;;10.04;78.11;101994.03;5059452;28;45711;-56
2023/12/14 10:29:44;;;;;;;;;2.00;2.00;;;;;9.98;77.80;101991.56;5055324;28;63349;-56
2023/12/14 10:32:11;;;;;;;;;2.33;2.00;;;;;9.93;77.81;102010.31;5059547;28;45323;-55
2023/12/14 10:34:37;;;;;;;;;4.00;2.00;;;;;9.86;77.92;102015.84;5064280;27;45545;-56
2023/12/14 10:37:06;;;;;;;;;3.00;3.00;;;;;9.80;77.30;102029.28;5059020;28;45391;-55
2023/12/14 10:39:33;;;;;;;;;3.00;2.00;;;;;9.72;77.20;102022.38;5060458;28;46065;-56
2023/12/14 10:42:03;;;;;;;;;2.33;1.67;;;;;9.69;77.94;102030.44;5058429;28;45471;-56
2023/12/14 10:44:30;;;;;;;;;2.00;2.00;;;;;9.67;77.69;102024.28;5056845;28;45732;-56
2023/12/14 10:46:56;;;;;;;;;3.00;3.00;;;;;9.77;78.28;102023.13;5054240;28;45383;-57
2023/12/14 10:49:24;;;;;;;;;3.00;3.00;;;;;9.92;78.21;102021.84;5054899;28;47010;-56
2023/12/14 10:51:50;;;;;;;;;1.33;1.33;;;;;10.09;77.37;102029.34;5057523;28;45555;-55
2023/12/14 10:54:16;;;;;;;;;2.33;2.33;;;;;10.24;77.28;102030.66;5058924;28;46587;-56
2023/12/14 10:56:41;;;;;;;;;3.00;1.00;;;;;10.34;77.25;102035.72;5059800;28;68674;-56
2023/12/14 10:59:07;;;;;;;;;3.00;3.00;;;;;10.35;76.99;102042.78;5040793;28;46477;-56
2023/12/14 11:01:32;;;;;;;;;1.33;1.33;;;;;10.32;76.18;102043.75;5060242;28;71738;-57
2023/12/14 11:03:59;;;;;;;;;4.67;2.00;;;;;10.30;75.74;102050.91;5062621;28;64831;-56
2023/12/14 11:06:24;;;;;;;;;2.67;2.67;;;;;10.23;75.42;102050.22;5063392;28;45474;-55
2023/12/14 11:08:52;;;;;;;;;2.00;2.00;;;;;10.20;75.68;102057.41;5063389;28;47053;-56
2023/12/14 11:11:20;;;;;;;;;3.33;3.00;;;;;10.16;76.10;102053.09;5059015;28;45512;-57
2023/12/14 11:13:49;;;;;;;;;3.00;1.00;;;;;10.09;76.17;102055.94;5095806;27;45374;-59
2023/12/14 11:16:15;;;;;;;;;3.00;2.00;;;;;10.05;74.30;102062.25;5061748;28;45485;-56
2023/12/14 11:18:40;;;;;;;;;1.00;1.00;;;;;10.05;74.87;102069.34;5078914;27;48131;-56
2023/12/14 11:21:06;;;;;;;;;3.00;2.00;;;;;10.06;75.04;102069.31;5058506;28;46550;-57
2023/12/14 11:23:40;;;;;;;;;2.00;2.00;;;;;10.08;74.94;102063.94;5058294;28;45904;-57
2023/12/14 11:26:09;;;;;;;;;2.00;2.00;;;;;10.15;75.11;102056.66;5090326;27;45980;-57
2023/12/14 11:28:43;;;;;;;;;1.00;1.00;;;;;10.23;75.20;102066.19;5059228;28;45443;-56
2023/12/14 11:31:12;;;;;;;;;1.00;1.00;;;;;10.29;73.54;102064.25;5056992;28;45528;-56
2023/12/14 11:33:37;;;;;;;;;1.00;1.00;;;;;10.36;74.64;102065.84;5087696;27;45565;-57
2023/12/14 11:36:03;;;;;;;;;1.00;1.00;;;;;10.45;74.30;102068.22;5063843;28;46378;-56
2023/12/14 11:38:29;;;;;;;;;0.67;0.67;;;;;10.62;73.00;102075.72;5058901;28;45952;-56
2023/12/14 11:40:55;;;;;;;;;1.00;1.00;;;;;10.83;71.61;102081.31;5063335;28;45714;-57
2023/12/14 11:43:21;;;;;;;;;1.00;1.00;;;;;11.04;71.93;102078.00;5058739;28;67655;-56